createdAt,value
2018-02-02T00:00:41.481Z,1.70
2018-02-02T00:03:08.931Z,1.60
2018-02-02T00:05:36.411Z,1.60
2018-02-02T00:08:04.716Z,1.60
2018-02-02T00:10:32.181Z,1.60
2018-02-02T00:12:59.763Z,1.70
2018-02-02T00:15:27.242Z,1.60
2018-02-02T00:17:54.713Z,1.70
2018-02-02T00:20:22.169Z,1.70
2018-02-02T00:22:49.649Z,1.70
2018-02-02T00:25:17.891Z,1.80
2018-02-02T00:27:45.375Z,1.80
2018-02-02T00:30:13.697Z,1.90
2018-02-02T00:32:41.165Z,1.90
2018-02-02T00:35:08.629Z,2.00
2018-02-02T00:37:36.107Z,2.00
2018-02-02T00:40:03.569Z,2.00
2018-02-02T00:42:31.030Z,2.10
2018-02-02T00:44:58.481Z,2.20
2018-02-02T00:47:25.958Z,2.30
2018-02-02T00:49:54.179Z,2.30
2018-02-02T00:52:21.662Z,2.30
2018-02-02T00:54:49.137Z,2.40
2018-02-02T00:57:16.619Z,2.40
2018-02-02T00:59:44.844Z,2.50
2018-02-02T01:02:12.309Z,2.50
2018-02-02T01:04:39.787Z,2.50
2018-02-02T01:07:07.247Z,2.50
2018-02-02T01:09:34.718Z,2.60
2018-02-02T01:12:02.196Z,2.60
2018-02-02T01:14:29.654Z,2.60
2018-02-02T01:16:57.119Z,2.60
2018-02-02T01:19:24.578Z,2.60
2018-02-02T01:21:52.041Z,2.60
2018-02-02T01:24:19.513Z,2.60
2018-02-02T01:26:46.985Z,2.60
2018-02-02T01:29:14.461Z,2.60
2018-02-02T01:31:42.002Z,2.60
2018-02-02T01:34:09.477Z,2.50
2018-02-02T01:36:36.966Z,2.50
2018-02-02T01:39:05.223Z,2.40
2018-02-02T01:41:32.709Z,2.40
2018-02-02T01:44:00.925Z,2.40
2018-02-02T01:46:28.417Z,2.40
2018-02-02T01:48:55.877Z,2.30
2018-02-02T01:51:23.340Z,2.30
2018-02-02T01:53:51.226Z,2.30
2018-02-02T01:56:19.473Z,2.30
2018-02-02T01:58:46.929Z,2.30
2018-02-02T02:01:14.405Z,2.30
2018-02-02T02:03:41.875Z,2.30
2018-02-02T02:06:10.147Z,2.20
2018-02-02T02:08:38.457Z,2.10
2018-02-02T02:11:05.946Z,2.20
2018-02-02T02:13:33.432Z,2.10
2018-02-02T02:16:01.023Z,2.20
2018-02-02T02:18:28.566Z,2.20
2018-02-02T02:20:56.030Z,2.20
2018-02-02T02:23:24.293Z,2.40
2018-02-02T02:25:51.794Z,2.40
2018-02-02T02:28:19.291Z,2.40
2018-02-02T02:30:46.808Z,2.50
2018-02-02T02:33:14.297Z,2.50
2018-02-02T02:35:41.813Z,2.60
2018-02-02T02:38:09.466Z,2.60
2018-02-02T02:40:36.950Z,2.60
2018-02-02T02:43:04.446Z,2.50
2018-02-02T02:45:31.939Z,2.50
2018-02-02T02:48:00.204Z,2.50
2018-02-02T02:50:28.466Z,2.40
2018-02-02T02:52:55.967Z,2.40
2018-02-02T02:55:23.450Z,2.30
2018-02-02T02:57:50.948Z,2.30
2018-02-02T03:00:18.724Z,2.30
2018-02-02T03:02:47.003Z,2.20
2018-02-02T03:05:15.276Z,2.20
2018-02-02T03:07:43.552Z,2.20
2018-02-02T03:10:11.841Z,2.10
2018-02-02T03:12:40.124Z,2.10
2018-02-02T03:15:08.407Z,2.00
2018-02-02T03:17:36.661Z,2.00
2018-02-02T03:20:04.151Z,2.00
2018-02-02T03:22:31.654Z,2.00
2018-02-02T03:24:59.152Z,2.00
2018-02-02T03:27:26.645Z,2.00
2018-02-02T03:29:54.162Z,1.90
2018-02-02T03:32:22.414Z,2.00
2018-02-02T03:34:49.894Z,1.90
2018-02-02T03:37:18.175Z,1.90
2018-02-02T03:39:46.431Z,1.90
2018-02-02T03:42:13.942Z,1.90
2018-02-02T03:44:41.425Z,1.90
2018-02-02T03:47:08.914Z,1.90
2018-02-02T03:49:36.404Z,1.90
2018-02-02T03:52:03.904Z,1.90
2018-02-02T03:54:31.416Z,1.90
2018-02-02T03:56:58.941Z,1.90
2018-02-02T03:59:26.447Z,1.80
2018-02-02T04:01:53.953Z,1.80
2018-02-02T04:04:21.451Z,1.80
2018-02-02T04:06:49.799Z,1.80
2018-02-02T04:09:17.322Z,1.80
2018-02-02T04:11:44.795Z,1.90
2018-02-02T04:14:12.319Z,1.80
2018-02-02T04:16:39.809Z,1.80
2018-02-02T04:19:07.305Z,1.90
2018-02-02T04:21:34.832Z,1.90
2018-02-02T04:24:02.325Z,1.90
2018-02-02T04:26:29.797Z,1.90
2018-02-02T04:28:58.367Z,1.90
2018-02-02T04:31:25.852Z,1.90
2018-02-02T04:33:54.131Z,2.00
2018-02-02T04:36:22.397Z,2.00
2018-02-02T04:38:50.650Z,2.00
2018-02-02T04:41:18.174Z,2.00
2018-02-02T04:43:45.668Z,2.00
2018-02-02T04:46:13.790Z,2.10
2018-02-02T04:48:41.254Z,2.10
2018-02-02T04:51:08.905Z,2.10
2018-02-02T04:53:36.377Z,2.10
2018-02-02T04:56:03.845Z,2.20
2018-02-02T04:58:31.315Z,2.10
2018-02-02T05:00:58.782Z,2.20
2018-02-02T05:03:26.275Z,2.20
2018-02-02T05:05:54.489Z,2.30
2018-02-02T05:08:21.962Z,2.30
2018-02-02T05:10:49.443Z,2.30
2018-02-02T05:13:16.973Z,2.30
2018-02-02T05:15:44.444Z,2.30
2018-02-02T05:18:11.937Z,2.40
2018-02-02T05:20:39.405Z,2.40
2018-02-02T05:23:07.674Z,2.40
2018-02-02T05:25:35.128Z,2.40
2018-02-02T05:28:02.605Z,2.50
2018-02-02T05:30:30.858Z,2.60
2018-02-02T05:32:58.343Z,2.50
2018-02-02T05:35:26.026Z,2.60
2018-02-02T05:37:53.528Z,2.70
2018-02-02T05:40:21.466Z,2.70
2018-02-02T05:42:48.934Z,2.60
2018-02-02T05:45:16.409Z,2.60
2018-02-02T05:47:43.885Z,2.50
2018-02-02T05:50:11.375Z,2.50
2018-02-02T05:52:38.832Z,2.50
2018-02-02T05:55:06.322Z,2.50
2018-02-02T05:57:33.820Z,2.60
2018-02-02T06:00:01.285Z,2.60
2018-02-02T06:02:29.521Z,2.60
2018-02-02T06:04:56.988Z,2.60
2018-02-02T06:07:24.461Z,2.60
2018-02-02T06:09:51.919Z,2.70
2018-02-02T06:12:19.403Z,2.70
2018-02-02T06:14:47.625Z,2.80
2018-02-02T06:17:15.126Z,2.70
2018-02-02T06:19:43.509Z,2.80
2018-02-02T06:22:11.022Z,2.80
2018-02-02T06:24:38.497Z,2.80
2018-02-02T06:27:06.013Z,2.80
2018-02-02T06:29:33.499Z,2.90
2018-02-02T06:32:00.976Z,2.90
2018-02-02T06:34:28.449Z,2.90
2018-02-02T06:37:04.755Z,2.90
2018-02-02T06:39:32.211Z,2.90
2018-02-02T06:41:59.687Z,2.90
2018-02-02T06:44:27.151Z,2.90
2018-02-02T06:46:54.610Z,2.90
2018-02-02T06:49:22.091Z,2.90
2018-02-02T06:51:49.568Z,2.90
2018-02-02T06:54:17.056Z,2.90
2018-02-02T06:56:45.302Z,2.80
2018-02-02T06:59:12.792Z,2.80
2018-02-02T07:01:41.034Z,2.80
2018-02-02T07:04:08.546Z,2.80
2018-02-02T07:06:36.052Z,2.80
2018-02-02T07:09:03.526Z,2.80
2018-02-02T07:11:31.787Z,2.70
2018-02-02T07:13:59.251Z,2.70
2018-02-02T07:16:26.730Z,2.70
2018-02-02T07:18:54.234Z,2.70
2018-02-02T07:21:21.718Z,2.60
2018-02-02T07:23:49.206Z,2.60
2018-02-02T07:26:17.583Z,2.60
2018-02-02T07:28:45.823Z,2.60
2018-02-02T07:31:13.302Z,2.60
2018-02-02T07:33:40.770Z,2.60
2018-02-02T07:36:09.022Z,2.60
2018-02-02T07:38:36.498Z,2.60
2018-02-02T07:41:03.980Z,2.60
2018-02-02T07:43:32.219Z,2.60
2018-02-02T07:45:59.694Z,2.60
2018-02-02T07:48:27.165Z,2.70
2018-02-02T07:50:55.394Z,2.70
2018-02-02T07:53:22.871Z,2.70
2018-02-02T07:55:50.356Z,2.70
2018-02-02T07:58:18.657Z,2.70
2018-02-02T08:00:51.655Z,2.70
2018-02-02T08:03:19.137Z,2.70
2018-02-02T08:05:47.370Z,2.70
2018-02-02T08:08:14.857Z,2.70
2018-02-02T08:10:42.347Z,2.70
2018-02-02T08:13:09.825Z,2.70
2018-02-02T08:15:38.070Z,2.60
2018-02-02T08:18:05.541Z,2.60
2018-02-02T08:20:33.022Z,2.70
2018-02-02T08:23:01.246Z,2.60
2018-02-02T08:25:28.735Z,2.60
2018-02-02T08:27:56.201Z,2.40
2018-02-02T08:30:23.670Z,2.40
2018-02-02T08:32:51.918Z,2.20
2018-02-02T08:35:19.401Z,2.20
2018-02-02T08:37:46.913Z,2.20
2018-02-02T08:40:14.388Z,2.20
2018-02-02T08:42:41.861Z,2.10
2018-02-02T08:45:09.340Z,2.10
2018-02-02T08:47:36.807Z,2.10
2018-02-02T08:50:05.057Z,2.00
2018-02-02T08:52:32.516Z,2.00
2018-02-02T08:54:59.996Z,2.00
2018-02-02T08:57:28.261Z,2.00
2018-02-02T08:59:55.734Z,2.00
2018-02-02T09:02:23.252Z,2.10
2018-02-02T09:04:50.713Z,2.20
2018-02-02T09:07:18.201Z,2.20
2018-02-02T09:09:45.665Z,2.10
2018-02-02T09:12:13.901Z,2.20
2018-02-02T09:14:42.127Z,2.20
2018-02-02T09:17:10.370Z,2.20
2018-02-02T09:19:37.824Z,2.10
2018-02-02T09:22:05.625Z,2.20
2018-02-02T09:24:33.100Z,2.20
2018-02-02T09:27:00.089Z,2.20
2018-02-02T09:29:28.362Z,2.10
2018-02-02T09:31:55.830Z,2.10
2018-02-02T09:34:23.318Z,2.10
2018-02-02T09:36:51.560Z,2.20
2018-02-02T09:39:19.044Z,2.20
2018-02-02T09:41:47.278Z,2.40
2018-02-02T09:44:14.806Z,2.40
2018-02-02T09:46:43.040Z,2.50
2018-02-02T09:49:10.510Z,2.50
2018-02-02T09:51:38.790Z,2.70
2018-02-02T09:54:06.250Z,2.60
2018-02-02T09:56:34.492Z,2.80
2018-02-02T09:59:01.963Z,2.80
2018-02-02T10:01:29.437Z,2.80
2018-02-02T10:03:56.894Z,2.90
2018-02-02T10:06:24.471Z,3.00
2018-02-02T10:08:54.028Z,3.10
2018-02-02T10:11:21.536Z,3.00
2018-02-02T10:13:49.772Z,3.20
2018-02-02T10:16:17.245Z,3.20
2018-02-02T10:18:44.735Z,3.40
2018-02-02T10:21:13.336Z,3.40
2018-02-02T10:23:40.849Z,3.40
2018-02-02T10:26:08.445Z,3.50
2018-02-02T10:28:36.678Z,3.70
2018-02-02T10:31:04.178Z,3.60
2018-02-02T10:33:32.644Z,3.70
2018-02-02T10:36:00.152Z,3.70
2018-02-02T10:38:27.626Z,3.80
2018-02-02T10:40:55.083Z,4.10
2018-02-02T10:43:22.614Z,4.50
2018-02-02T10:45:50.375Z,4.60
2018-02-02T10:48:17.886Z,4.90
2018-02-02T10:50:45.442Z,5.00
2018-02-02T10:53:12.896Z,5.00
2018-02-02T10:55:40.386Z,4.90
2018-02-02T10:58:11.945Z,4.80
2018-02-02T11:00:45.057Z,4.90
2018-02-02T11:03:18.384Z,5.00
2018-02-02T11:05:46.078Z,5.00
2018-02-02T11:08:13.552Z,5.10
2018-02-02T11:10:41.067Z,5.10
2018-02-02T11:13:08.820Z,5.00
2018-02-02T11:15:36.309Z,4.90
2018-02-02T11:18:03.798Z,4.90
2018-02-02T11:20:31.704Z,5.00
2018-02-02T11:22:59.205Z,5.00
2018-02-02T11:25:26.740Z,5.00
2018-02-02T11:27:54.630Z,4.90
2018-02-02T11:30:23.915Z,4.90
2018-02-02T11:32:51.431Z,4.90
2018-02-02T11:35:19.685Z,5.00
2018-02-02T11:37:48.020Z,4.80
2018-02-02T11:40:15.513Z,4.80
2018-02-02T11:42:43.771Z,4.70
2018-02-02T11:45:11.753Z,4.70
2018-02-02T11:47:39.255Z,4.70
2018-02-02T11:50:06.806Z,4.80
2018-02-02T11:52:35.048Z,5.00
2018-02-02T11:55:03.019Z,5.00
2018-02-02T11:57:30.499Z,4.80
2018-02-02T11:59:58.717Z,4.70
2018-02-02T12:02:26.289Z,4.70
2018-02-02T12:04:53.846Z,4.70
2018-02-02T12:07:22.044Z,4.70
2018-02-02T12:09:49.515Z,4.60
2018-02-02T12:12:16.987Z,4.60
2018-02-02T12:14:45.384Z,5.30
2018-02-02T12:17:13.818Z,5.50
2018-02-02T12:19:42.111Z,5.50
2018-02-02T12:22:15.387Z,5.60
2018-02-02T12:28:04.513Z,5.90
2018-02-02T12:30:51.813Z,5.90
2018-02-02T12:36:22.170Z,5.30
2018-02-02T12:38:50.538Z,5.20
2018-02-02T12:41:18.028Z,5.20
2018-02-02T12:43:46.271Z,5.20
2018-02-02T12:46:14.580Z,5.20
2018-02-02T12:48:42.841Z,5.10
2018-02-02T12:51:15.979Z,4.90
2018-02-02T12:53:43.487Z,4.90
2018-02-02T12:56:12.084Z,4.70
2018-02-02T12:58:39.652Z,4.60
2018-02-02T13:01:08.267Z,4.20
2018-02-02T13:03:35.730Z,4.20
2018-02-02T13:06:03.228Z,4.00
2018-02-02T13:08:30.873Z,3.80
2018-02-02T13:10:58.341Z,3.70
2018-02-02T13:13:25.844Z,3.50
2018-02-02T13:15:53.679Z,3.50
2018-02-02T13:18:21.258Z,3.30
2018-02-02T13:20:49.529Z,3.00
2018-02-02T13:23:17.803Z,3.10
2018-02-02T13:25:46.033Z,3.20
2018-02-02T13:28:13.667Z,3.20
2018-02-02T13:30:42.995Z,3.10
2018-02-02T13:33:10.483Z,3.10
2018-02-02T13:35:37.972Z,3.30
2018-02-02T13:38:06.287Z,3.50
2018-02-02T13:40:33.803Z,3.50
2018-02-02T13:43:02.058Z,3.60
2018-02-02T13:45:29.536Z,3.60
2018-02-02T13:47:57.789Z,3.70
2018-02-02T13:50:25.392Z,3.70
2018-02-02T13:52:53.746Z,3.60
2018-02-02T13:55:21.255Z,3.60
2018-02-02T13:57:49.027Z,3.60
2018-02-02T14:00:17.710Z,3.50
2018-02-02T14:02:45.965Z,3.40
2018-02-02T14:05:13.503Z,3.40
2018-02-02T14:07:41.787Z,3.30
2018-02-02T14:10:10.046Z,3.20
2018-02-02T14:12:37.534Z,3.20
2018-02-02T14:15:05.075Z,3.10
2018-02-02T14:17:33.336Z,3.10
2018-02-02T14:20:00.832Z,3.10
2018-02-02T14:22:28.332Z,3.20
2018-02-02T14:24:55.913Z,3.20
2018-02-02T14:27:24.919Z,3.10
2018-02-02T14:29:52.505Z,3.10
2018-02-02T14:32:21.901Z,3.10
2018-02-02T14:34:50.154Z,3.10
2018-02-02T14:37:17.648Z,3.20
2018-02-02T14:39:45.240Z,3.20
2018-02-02T14:42:12.739Z,3.20
2018-02-02T14:44:41.004Z,3.20
2018-02-02T14:47:08.508Z,3.20
2018-02-02T14:49:36.538Z,3.20
2018-02-02T14:52:04.139Z,3.20
2018-02-02T14:54:31.633Z,3.20
2018-02-02T14:56:59.158Z,3.10
2018-02-02T14:59:26.755Z,3.10
2018-02-02T15:01:55.391Z,3.10
2018-02-02T15:04:23.000Z,3.00
2018-02-02T15:06:50.821Z,3.00
2018-02-02T15:09:18.352Z,3.00
2018-02-02T15:11:46.210Z,2.90
2018-02-02T15:14:13.757Z,2.80
2018-02-02T15:16:41.339Z,2.90
2018-02-02T15:19:08.822Z,3.00
2018-02-02T15:21:37.103Z,3.00
2018-02-02T15:24:05.352Z,3.00
2018-02-02T15:26:32.889Z,3.00
2018-02-02T15:29:00.386Z,2.90
2018-02-02T15:31:27.916Z,2.90
2018-02-02T15:33:55.386Z,2.90
2018-02-02T15:36:22.892Z,2.90
2018-02-02T15:38:50.624Z,2.90
2018-02-02T15:41:19.202Z,2.80
2018-02-02T15:43:47.462Z,2.80
2018-02-02T15:46:14.943Z,2.80
2018-02-02T15:48:43.231Z,2.80
2018-02-02T15:51:13.441Z,2.60
2018-02-02T15:53:41.333Z,2.60
2018-02-02T15:56:08.840Z,2.60
2018-02-02T15:58:36.302Z,2.60
2018-02-02T16:01:03.840Z,2.60
2018-02-02T16:03:31.318Z,2.60
2018-02-02T16:05:58.798Z,2.60
2018-02-02T16:08:26.314Z,2.50
2018-02-02T16:10:53.914Z,2.50
2018-02-02T16:13:21.409Z,2.50
2018-02-02T16:15:48.895Z,2.50
2018-02-02T16:18:16.370Z,2.40
2018-02-02T16:20:43.871Z,2.40
2018-02-02T16:23:12.188Z,2.30
2018-02-02T16:25:39.679Z,2.30
2018-02-02T16:28:07.222Z,2.30
2018-02-02T16:30:35.703Z,2.30
2018-02-02T16:33:03.442Z,2.30
2018-02-02T16:35:31.081Z,2.30
2018-02-02T16:37:59.335Z,2.30
2018-02-02T16:40:26.838Z,2.30
2018-02-02T16:42:54.328Z,2.20
2018-02-02T16:45:22.685Z,2.20
2018-02-02T16:47:51.367Z,2.10
2018-02-02T16:50:18.881Z,2.20
2018-02-02T16:52:47.257Z,2.10
2018-02-02T16:55:14.735Z,2.10
2018-02-02T16:57:42.979Z,2.20
2018-02-02T17:00:10.546Z,2.20
2018-02-02T17:02:38.043Z,2.20
2018-02-02T17:05:05.858Z,2.20
2018-02-02T17:07:33.350Z,2.20
2018-02-02T17:10:03.090Z,2.20
2018-02-02T17:12:31.179Z,2.30
2018-02-02T17:14:58.690Z,2.20
2018-02-02T17:17:26.191Z,2.30
2018-02-02T17:19:53.692Z,2.40
2018-02-02T17:22:22.032Z,2.40
2018-02-02T17:24:49.522Z,2.40
2018-02-02T17:27:17.045Z,2.40
2018-02-02T17:29:44.516Z,2.40
2018-02-02T17:32:12.092Z,2.40
2018-02-02T17:34:39.604Z,2.50
2018-02-02T17:37:07.099Z,2.50
2018-02-02T17:39:34.630Z,2.50
2018-02-02T17:42:02.094Z,2.50
2018-02-02T17:44:29.599Z,2.60
2018-02-02T17:46:57.080Z,2.60
2018-02-02T17:49:25.348Z,2.60
2018-02-02T17:51:52.823Z,2.60
2018-02-02T17:54:21.087Z,2.60
2018-02-02T17:56:48.647Z,2.60
2018-02-02T17:59:16.124Z,2.60
2018-02-02T18:01:46.142Z,2.50
2018-02-02T18:04:14.406Z,2.60
2018-02-02T18:06:42.721Z,2.60
2018-02-02T18:09:10.238Z,2.60
2018-02-02T18:11:37.711Z,2.60
2018-02-02T18:14:05.965Z,2.70
2018-02-02T18:16:33.467Z,2.70
2018-02-02T18:19:01.384Z,2.80
2018-02-02T18:21:28.878Z,2.80
2018-02-02T18:23:56.388Z,2.80
2018-02-02T18:26:23.955Z,2.80
2018-02-02T18:28:51.472Z,2.90
2018-02-02T18:31:18.983Z,2.90
2018-02-02T18:33:46.509Z,2.90
2018-02-02T18:36:14.009Z,2.80
2018-02-02T18:38:41.480Z,2.80
2018-02-02T18:41:09.751Z,2.70
2018-02-02T18:43:37.228Z,2.70
2018-02-02T18:46:04.736Z,2.60
2018-02-02T18:48:32.221Z,2.60
2018-02-02T18:50:59.799Z,2.50
2018-02-02T18:53:27.370Z,2.40
2018-02-02T18:55:55.608Z,2.30
2018-02-02T18:58:23.177Z,2.30
2018-02-02T19:00:50.630Z,2.20
2018-02-02T19:03:18.163Z,2.30
2018-02-02T19:05:45.669Z,2.40
2018-02-02T19:08:13.161Z,2.50
2018-02-02T19:10:40.657Z,2.50
2018-02-02T19:13:08.178Z,2.60
2018-02-02T19:15:35.707Z,2.60
2018-02-02T19:18:04.009Z,2.80
2018-02-02T19:20:31.806Z,2.70
2018-02-02T19:23:00.758Z,2.80
2018-02-02T19:25:30.490Z,2.80
2018-02-02T19:27:58.113Z,2.80
2018-02-02T19:30:26.430Z,2.80
2018-02-02T19:32:54.291Z,2.80
2018-02-02T19:35:23.196Z,2.90
2018-02-02T19:37:52.052Z,2.90
2018-02-02T19:40:20.360Z,2.90
2018-02-02T19:42:48.426Z,2.90
2018-02-02T19:45:16.044Z,2.90
2018-02-02T19:47:43.581Z,2.90
2018-02-02T19:50:11.212Z,2.90
2018-02-02T19:52:40.750Z,2.90
2018-02-02T19:55:10.050Z,3.00
2018-02-02T19:57:40.135Z,3.00
2018-02-02T20:00:07.636Z,3.00
2018-02-02T20:02:35.184Z,3.00
2018-02-02T20:05:03.440Z,3.10
2018-02-02T20:07:30.961Z,3.10
2018-02-02T20:09:58.482Z,3.10
2018-02-02T20:12:26.843Z,3.10
2018-02-02T20:14:54.369Z,3.10
2018-02-02T20:17:22.175Z,3.10
2018-02-02T20:19:51.075Z,3.20
2018-02-02T20:22:18.705Z,3.10
2018-02-02T20:24:46.477Z,3.10
2018-02-02T20:27:14.139Z,3.10
2018-02-02T20:29:42.235Z,3.10
2018-02-02T20:32:10.258Z,3.10
2018-02-02T20:40:32.992Z,3.10
2018-02-02T20:43:01.367Z,3.10
2018-02-02T20:45:30.631Z,3.10
2018-02-02T20:48:00.326Z,3.10
2018-02-02T20:50:40.585Z,3.10
2018-02-02T20:55:49.175Z,3.20
2018-02-02T20:58:18.015Z,3.20
2018-02-02T21:00:49.281Z,3.10
2018-02-02T21:03:17.689Z,3.10
2018-02-02T21:05:45.207Z,3.10
2018-02-02T21:08:13.789Z,3.10
2018-02-02T21:10:43.228Z,3.10
2018-02-02T21:13:11.618Z,3.10
2018-02-02T21:15:39.366Z,3.10
2018-02-02T21:18:07.078Z,3.10
2018-02-02T21:20:35.821Z,3.10
2018-02-02T21:23:07.388Z,3.20
2018-02-02T21:25:37.126Z,3.10
2018-02-02T21:28:06.215Z,3.10
2018-02-02T21:30:37.407Z,3.10
2018-02-02T21:33:06.966Z,3.10
2018-02-02T21:35:38.269Z,3.20
2018-02-02T21:38:07.455Z,3.10
2018-02-02T21:40:37.797Z,3.10
2018-02-02T21:43:08.188Z,3.10
2018-02-02T21:45:35.666Z,3.10
2018-02-02T21:48:04.143Z,3.20
2018-02-02T21:50:31.651Z,3.10
2018-02-02T21:52:59.119Z,3.10
2018-02-02T21:55:26.610Z,3.10
2018-02-02T21:57:54.118Z,3.10
2018-02-02T22:00:21.594Z,3.10
2018-02-02T22:02:49.130Z,3.10
2018-02-02T22:05:16.566Z,3.10
2018-02-02T22:07:44.057Z,3.10
2018-02-02T22:10:11.522Z,3.00
2018-02-02T22:12:39.002Z,3.00
2018-02-02T22:15:07.246Z,3.10
2018-02-02T22:17:34.725Z,3.10
2018-02-02T22:20:03.603Z,3.10
2018-02-02T22:22:31.080Z,3.10
2018-02-02T22:24:59.328Z,3.10
2018-02-02T22:27:26.810Z,3.10
2018-02-02T22:29:54.287Z,3.10
2018-02-02T22:32:22.001Z,3.10
2018-02-02T22:34:50.269Z,3.10
2018-02-02T22:37:17.721Z,3.10
2018-02-02T22:39:45.195Z,3.10
2018-02-02T22:42:12.677Z,3.10
2018-02-02T22:44:40.124Z,3.10
2018-02-02T22:47:07.606Z,3.10
2018-02-02T22:49:35.841Z,3.10
2018-02-02T22:52:03.395Z,3.10
2018-02-02T22:54:30.862Z,3.10
2018-02-02T22:56:58.353Z,3.10
2018-02-02T22:59:26.613Z,3.10
2018-02-02T23:01:54.082Z,3.10
2018-02-02T23:04:21.541Z,3.10
2018-02-02T23:06:49.038Z,3.10
2018-02-02T23:09:16.533Z,3.10
2018-02-02T23:11:43.988Z,3.10
2018-02-02T23:14:11.475Z,3.10
2018-02-02T23:16:38.948Z,3.10
2018-02-02T23:19:07.178Z,3.10
2018-02-02T23:21:34.650Z,3.10
2018-02-02T23:24:02.152Z,3.10
2018-02-02T23:26:29.633Z,3.10
2018-02-02T23:28:57.115Z,3.10
2018-02-02T23:31:24.583Z,3.10
2018-02-02T23:33:52.052Z,3.10
2018-02-02T23:36:19.536Z,3.10
2018-02-02T23:38:47.771Z,3.10
2018-02-02T23:41:15.245Z,3.00
2018-02-02T23:43:42.733Z,3.00
2018-02-02T23:46:11.009Z,3.00
2018-02-02T23:48:39.243Z,3.00
2018-02-02T23:51:06.729Z,3.00
2018-02-02T23:53:34.194Z,2.90
2018-02-02T23:56:02.418Z,2.90
2018-02-02T23:58:29.885Z,2.90
